createdAt,value
2017-06-06T00:01:58.000Z,37.3
2017-06-06T00:11:58.000Z,37.3
2017-06-06T00:21:58.000Z,37.4
2017-06-06T00:31:58.000Z,37.8
2017-06-06T00:41:58.000Z,37.9
2017-06-06T00:51:58.000Z,38.2
2017-06-06T01:01:58.000Z,38.3
2017-06-06T01:11:58.000Z,38.7
2017-06-06T01:21:58.000Z,39
2017-06-06T01:31:58.000Z,39.3
2017-06-06T01:41:58.000Z,39.5
2017-06-06T01:51:59.000Z,39.5
2017-06-06T02:01:58.000Z,40.2
2017-06-06T02:11:58.000Z,40
2017-06-06T02:21:58.000Z,40.2
2017-06-06T02:31:59.000Z,40
2017-06-06T02:41:58.000Z,40.2
2017-06-06T02:51:58.000Z,40.8
2017-06-06T03:01:58.000Z,41.2
2017-06-06T03:11:58.000Z,41.5
2017-06-06T03:21:58.000Z,41.7
2017-06-06T03:31:58.000Z,41.9
2017-06-06T03:41:58.000Z,42
2017-06-06T03:51:58.000Z,42.2
2017-06-06T04:01:58.000Z,42.3
2017-06-06T04:11:58.000Z,42.5
2017-06-06T04:21:58.000Z,42.7
2017-06-06T04:31:59.000Z,43.3
2017-06-06T04:42:02.000Z,42.8
2017-06-06T04:51:59.000Z,42.6
2017-06-06T05:01:58.000Z,42.4
2017-06-06T05:11:59.000Z,42.7
2017-06-06T05:21:58.000Z,42.7
2017-06-06T05:32:00.000Z,42.6
2017-06-06T05:41:58.000Z,42.9
2017-06-06T05:51:59.000Z,43
2017-06-06T06:01:59.000Z,43
2017-06-06T06:11:58.000Z,42.8
2017-06-06T06:21:59.000Z,42.3
2017-06-06T06:32:00.000Z,42.1
2017-06-06T06:41:59.000Z,42.1
2017-06-06T06:51:59.000Z,42
2017-06-06T07:01:59.000Z,41.8
2017-06-06T07:11:59.000Z,41.4
2017-06-06T07:21:59.000Z,40.7
2017-06-06T07:32:01.000Z,40.6
2017-06-06T07:41:59.000Z,40.7
2017-06-06T07:52:00.000Z,40.8
2017-06-06T08:01:59.000Z,40.5
2017-06-06T08:12:00.000Z,40.7
2017-06-06T08:21:59.000Z,40.7
2017-06-06T08:32:01.000Z,40.7
2017-06-06T08:42:00.000Z,40.5
2017-06-06T08:51:59.000Z,40.3
2017-06-06T09:02:01.000Z,40.3
2017-06-06T09:11:59.000Z,40.5
2017-06-06T09:22:00.000Z,40.8
2017-06-06T09:32:02.000Z,40.6
2017-06-06T09:41:59.000Z,40.8
2017-06-06T09:51:59.000Z,40.7
2017-06-06T10:01:59.000Z,40.7
2017-06-06T10:11:59.000Z,40.7
2017-06-06T10:21:59.000Z,41
2017-06-06T10:31:59.000Z,40.9
2017-06-06T10:42:00.000Z,40.9
2017-06-06T10:51:59.000Z,41
2017-06-06T11:02:00.000Z,40.7
2017-06-06T11:12:00.000Z,41
2017-06-06T11:21:59.000Z,41.3
2017-06-06T11:32:00.000Z,40.9
2017-06-06T11:41:59.000Z,41.3
2017-06-06T11:51:59.000Z,41.3
2017-06-06T12:02:02.000Z,41.3
2017-06-06T12:12:01.000Z,41.6
2017-06-06T12:21:59.000Z,41.5
2017-06-06T12:32:00.000Z,41.3
2017-06-06T12:42:00.000Z,41.1
2017-06-06T12:52:00.000Z,41
2017-06-06T13:02:00.000Z,40.7
2017-06-06T13:12:00.000Z,40.6
2017-06-06T13:22:00.000Z,40.5
2017-06-06T13:32:00.000Z,40.4
2017-06-06T13:42:00.000Z,40.4
2017-06-06T13:52:00.000Z,39.2
2017-06-06T14:02:00.000Z,40.3
2017-06-06T14:12:00.000Z,40.2
2017-06-06T14:22:00.000Z,40
2017-06-06T14:32:00.000Z,40
2017-06-06T14:42:00.000Z,39.8
2017-06-06T14:52:00.000Z,39.2
2017-06-06T15:02:00.000Z,38.5
2017-06-06T15:12:00.000Z,38
2017-06-06T15:22:00.000Z,38.1
2017-06-06T15:32:00.000Z,38.2
2017-06-06T15:42:00.000Z,38.2
2017-06-06T15:52:00.000Z,36.9
2017-06-06T16:02:01.000Z,36.8
2017-06-06T16:12:04.000Z,37.8
2017-06-06T16:22:00.000Z,38.1
2017-06-06T16:32:00.000Z,37.5
2017-06-06T16:42:01.000Z,36.4
2017-06-06T16:52:00.000Z,36.2
2017-06-06T17:02:01.000Z,36.5
2017-06-06T17:12:00.000Z,36.8
2017-06-06T17:22:01.000Z,37.1
2017-06-06T17:32:00.000Z,36.4
2017-06-06T17:42:01.000Z,36.1
2017-06-06T17:52:00.000Z,36.4
2017-06-06T18:02:01.000Z,36.9
2017-06-06T18:12:00.000Z,37
2017-06-06T18:22:01.000Z,37
2017-06-06T18:32:00.000Z,37.4
2017-06-06T18:42:01.000Z,37.2
2017-06-06T18:52:01.000Z,37.1
2017-06-06T19:02:00.000Z,37.3
2017-06-06T19:12:01.000Z,37.4
2017-06-06T19:22:01.000Z,38.4
2017-06-06T19:32:01.000Z,38.5
2017-06-06T19:42:01.000Z,38.5
2017-06-06T19:52:01.000Z,38.1
2017-06-06T20:02:01.000Z,38.4
2017-06-06T20:12:01.000Z,38.4
2017-06-06T20:22:01.000Z,38.3
2017-06-06T20:32:01.000Z,38.2
2017-06-06T20:42:01.000Z,37.7
2017-06-06T20:52:01.000Z,38
2017-06-06T21:02:01.000Z,38.5
2017-06-06T21:22:02.000Z,38.5
2017-06-06T21:32:11.000Z,36.7
2017-06-06T21:42:01.000Z,35.8
2017-06-06T21:52:01.000Z,35.5
2017-06-06T22:02:01.000Z,35.2
2017-06-06T22:12:01.000Z,35.3
2017-06-06T22:22:05.000Z,35.4
2017-06-06T22:32:02.000Z,35.6
2017-06-06T22:42:01.000Z,35.5
2017-06-06T22:52:01.000Z,35.6
2017-06-06T23:02:01.000Z,36
2017-06-06T23:12:01.000Z,36.4
2017-06-06T23:22:01.000Z,36.5
2017-06-06T23:32:02.000Z,36.6
2017-06-06T23:42:01.000Z,36.6
2017-06-06T23:52:02.000Z,36.6
